sensor_id;sensor_type;location;lat;lon;timestamp;pressure;altitude;pressure_sealevel;temperature;humidity
60611;BME280;46439;51.164;13.572;2023-04-21T00:00:52;99826.23;;;12.23;100.00
60611;BME280;46439;51.164;13.572;2023-04-21T00:03:22;99824.14;;;12.25;100.00
60611;BME280;46439;51.164;13.572;2023-04-21T00:05:51;99826.86;;;12.27;100.00
60611;BME280;46439;51.164;13.572;2023-04-21T00:08:20;99826.04;;;12.25;100.00
60611;BME280;46439;51.164;13.572;2023-04-21T00:10:48;99818.73;;;12.22;100.00
60611;BME280;46439;51.164;13.572;2023-04-21T00:13:17;99827.98;;;12.18;100.00
60611;BME280;46439;51.164;13.572;2023-04-21T00:15:45;99822.97;;;12.13;100.00
60611;BME280;46439;51.164;13.572;2023-04-21T00:18:14;99818.02;;;12.11;100.00
60611;BME280;46439;51.164;13.572;2023-04-21T00:20:43;99817.77;;;12.07;100.00
60611;BME280;46439;51.164;13.572;2023-04-21T00:23:12;99819.33;;;12.05;100.00
60611;BME280;46439;51.164;13.572;2023-04-21T00:25:40;99816.20;;;11.99;100.00
60611;BME280;46439;51.164;13.572;2023-04-21T00:28:09;99819.98;;;11.94;100.00
60611;BME280;46439;51.164;13.572;2023-04-21T00:30:37;99817.61;;;11.91;100.00
60611;BME280;46439;51.164;13.572;2023-04-21T00:33:06;99822.42;;;11.85;100.00
60611;BME280;46439;51.164;13.572;2023-04-21T00:35:34;99810.27;;;11.82;100.00
60611;BME280;46439;51.164;13.572;2023-04-21T00:38:03;99793.71;;;11.79;100.00
60611;BME280;46439;51.164;13.572;2023-04-21T00:40:31;99795.73;;;11.77;100.00
60611;BME280;46439;51.164;13.572;2023-04-21T00:43:00;99794.28;;;11.74;100.00
60611;BME280;46439;51.164;13.572;2023-04-21T00:45:28;99790.55;;;11.70;100.00
60611;BME280;46439;51.164;13.572;2023-04-21T00:47:57;99790.27;;;11.69;100.00
60611;BME280;46439;51.164;13.572;2023-04-21T00:50:27;99785.05;;;11.67;100.00
60611;BME280;46439;51.164;13.572;2023-04-21T00:52:56;99784.84;;;11.64;100.00
60611;BME280;46439;51.164;13.572;2023-04-21T00:55:25;99788.42;;;11.63;100.00
60611;BME280;46439;51.164;13.572;2023-04-21T00:57:54;99781.73;;;11.62;100.00
60611;BME280;46439;51.164;13.572;2023-04-21T01:00:24;99783.88;;;11.59;100.00
60611;BME280;46439;51.164;13.572;2023-04-21T01:02:52;99782.84;;;11.55;100.00
60611;BME280;46439;51.164;13.572;2023-04-21T01:05:21;99777.13;;;11.52;100.00
60611;BME280;46439;51.164;13.572;2023-04-21T01:07:50;99777.87;;;11.50;100.00
60611;BME280;46439;51.164;13.572;2023-04-21T01:10:18;99778.05;;;11.49;100.00
60611;BME280;46439;51.164;13.572;2023-04-21T01:12:47;99773.35;;;11.45;100.00
60611;BME280;46439;51.164;13.572;2023-04-21T01:15:16;99758.38;;;11.37;100.00
60611;BME280;46439;51.164;13.572;2023-04-21T01:17:45;99733.09;;;11.27;100.00
60611;BME280;46439;51.164;13.572;2023-04-21T01:20:14;99791.39;;;11.19;100.00
60611;BME280;46439;51.164;13.572;2023-04-21T01:22:43;99793.77;;;11.07;100.00
60611;BME280;46439;51.164;13.572;2023-04-21T01:25:12;99801.11;;;10.99;100.00
60611;BME280;46439;51.164;13.572;2023-04-21T01:27:40;99802.29;;;10.91;100.00
60611;BME280;46439;51.164;13.572;2023-04-21T01:30:10;99794.23;;;10.78;100.00
60611;BME280;46439;51.164;13.572;2023-04-21T01:32:39;99789.65;;;10.69;100.00
60611;BME280;46439;51.164;13.572;2023-04-21T01:35:09;99790.38;;;10.62;100.00
60611;BME280;46439;51.164;13.572;2023-04-21T01:37:38;99788.30;;;10.59;100.00
60611;BME280;46439;51.164;13.572;2023-04-21T01:40:10;99783.64;;;10.61;100.00
60611;BME280;46439;51.164;13.572;2023-04-21T01:42:41;99777.06;;;10.63;100.00
60611;BME280;46439;51.164;13.572;2023-04-21T01:45:11;99779.16;;;10.62;100.00
60611;BME280;46439;51.164;13.572;2023-04-21T01:47:39;99783.97;;;10.58;100.00
60611;BME280;46439;51.164;13.572;2023-04-21T01:50:09;99781.88;;;10.53;100.00
60611;BME280;46439;51.164;13.572;2023-04-21T01:52:38;99784.58;;;10.47;100.00
60611;BME280;46439;51.164;13.572;2023-04-21T01:55:08;99773.25;;;10.45;100.00
60611;BME280;46439;51.164;13.572;2023-04-21T01:57:36;99776.04;;;10.43;100.00
60611;BME280;46439;51.164;13.572;2023-04-21T02:00:06;99778.63;;;10.39;100.00
60611;BME280;46439;51.164;13.572;2023-04-21T02:02:36;99773.66;;;10.29;100.00
60611;BME280;46439;51.164;13.572;2023-04-21T02:05:06;99775.02;;;10.23;100.00
60611;BME280;46439;51.164;13.572;2023-04-21T02:07:35;99772.71;;;10.20;100.00
60611;BME280;46439;51.164;13.572;2023-04-21T02:10:04;99774.46;;;10.18;100.00
60611;BME280;46439;51.164;13.572;2023-04-21T02:12:32;99776.79;;;10.16;100.00
60611;BME280;46439;51.164;13.572;2023-04-21T02:15:01;99775.23;;;10.10;100.00
60611;BME280;46439;51.164;13.572;2023-04-21T02:17:29;99780.20;;;10.04;100.00
60611;BME280;46439;51.164;13.572;2023-04-21T02:19:59;99775.40;;;9.95;100.00
60611;BME280;46439;51.164;13.572;2023-04-21T02:22:27;99776.43;;;9.86;100.00
60611;BME280;46439;51.164;13.572;2023-04-21T02:24:56;99776.02;;;9.78;100.00
60611;BME280;46439;51.164;13.572;2023-04-21T02:27:24;99779.30;;;9.75;100.00
60611;BME280;46439;51.164;13.572;2023-04-21T02:29:53;99785.91;;;9.72;100.00
60611;BME280;46439;51.164;13.572;2023-04-21T02:32:21;99790.83;;;9.68;100.00
60611;BME280;46439;51.164;13.572;2023-04-21T02:34:50;99794.59;;;9.64;100.00
60611;BME280;46439;51.164;13.572;2023-04-21T02:37:18;99797.44;;;9.59;100.00
60611;BME280;46439;51.164;13.572;2023-04-21T02:39:46;99798.23;;;9.54;100.00
60611;BME280;46439;51.164;13.572;2023-04-21T02:42:15;99795.54;;;9.51;100.00
60611;BME280;46439;51.164;13.572;2023-04-21T02:44:43;99796.21;;;9.51;100.00
60611;BME280;46439;51.164;13.572;2023-04-21T02:47:13;99799.49;;;9.54;100.00
60611;BME280;46439;51.164;13.572;2023-04-21T02:49:43;99796.07;;;9.52;100.00
60611;BME280;46439;51.164;13.572;2023-04-21T02:52:11;99798.63;;;9.52;100.00
60611;BME280;46439;51.164;13.572;2023-04-21T02:54:40;99802.04;;;9.51;100.00
60611;BME280;46439;51.164;13.572;2023-04-21T02:57:08;99803.08;;;9.51;100.00
60611;BME280;46439;51.164;13.572;2023-04-21T02:59:36;99809.40;;;9.54;100.00
60611;BME280;46439;51.164;13.572;2023-04-21T03:02:05;99809.63;;;9.56;100.00
60611;BME280;46439;51.164;13.572;2023-04-21T03:04:33;99813.27;;;9.54;100.00
60611;BME280;46439;51.164;13.572;2023-04-21T03:07:02;99815.36;;;9.55;100.00
60611;BME280;46439;51.164;13.572;2023-04-21T03:09:30;99815.69;;;9.55;100.00
60611;BME280;46439;51.164;13.572;2023-04-21T03:11:59;99820.96;;;9.52;100.00
60611;BME280;46439;51.164;13.572;2023-04-21T03:14:29;99821.13;;;9.43;100.00
60611;BME280;46439;51.164;13.572;2023-04-21T03:16:57;99830.64;;;9.33;100.00
60611;BME280;46439;51.164;13.572;2023-04-21T03:19:25;99827.54;;;9.31;100.00
60611;BME280;46439;51.164;13.572;2023-04-21T03:21:54;99828.20;;;9.34;100.00
60611;BME280;46439;51.164;13.572;2023-04-21T03:24:22;99826.29;;;9.33;100.00
60611;BME280;46439;51.164;13.572;2023-04-21T03:26:51;99827.73;;;9.31;100.00
60611;BME280;46439;51.164;13.572;2023-04-21T03:29:20;99830.98;;;9.31;100.00
60611;BME280;46439;51.164;13.572;2023-04-21T03:31:48;99834.17;;;9.32;100.00
60611;BME280;46439;51.164;13.572;2023-04-21T03:34:17;99829.64;;;9.31;100.00
60611;BME280;46439;51.164;13.572;2023-04-21T03:36:45;99831.42;;;9.26;100.00
60611;BME280;46439;51.164;13.572;2023-04-21T03:39:14;99837.89;;;9.15;100.00
60611;BME280;46439;51.164;13.572;2023-04-21T03:41:42;99840.11;;;8.98;100.00
60611;BME280;46439;51.164;13.572;2023-04-21T03:44:11;99846.63;;;8.83;100.00
60611;BME280;46439;51.164;13.572;2023-04-21T03:46:39;99847.89;;;8.70;100.00
60611;BME280;46439;51.164;13.572;2023-04-21T03:49:08;99850.73;;;8.62;100.00
60611;BME280;46439;51.164;13.572;2023-04-21T03:51:36;99854.12;;;8.60;100.00
60611;BME280;46439;51.164;13.572;2023-04-21T03:54:05;99858.79;;;8.60;100.00
60611;BME280;46439;51.164;13.572;2023-04-21T03:56:34;99860.65;;;8.55;100.00
60611;BME280;46439;51.164;13.572;2023-04-21T03:59:03;99866.42;;;8.50;100.00
60611;BME280;46439;51.164;13.572;2023-04-21T04:01:32;99870.09;;;8.52;100.00
60611;BME280;46439;51.164;13.572;2023-04-21T04:04:01;99876.22;;;8.56;100.00
60611;BME280;46439;51.164;13.572;2023-04-21T04:06:29;99876.62;;;8.61;100.00
60611;BME280;46439;51.164;13.572;2023-04-21T04:08:59;99879.45;;;8.66;100.00
60611;BME280;46439;51.164;13.572;2023-04-21T04:11:29;99880.63;;;8.69;100.00
60611;BME280;46439;51.164;13.572;2023-04-21T04:13:58;99885.73;;;8.66;100.00
60611;BME280;46439;51.164;13.572;2023-04-21T04:16:27;99884.26;;;8.63;100.00
60611;BME280;46439;51.164;13.572;2023-04-21T04:18:56;99891.79;;;8.63;100.00
60611;BME280;46439;51.164;13.572;2023-04-21T04:21:24;99893.85;;;8.63;100.00
60611;BME280;46439;51.164;13.572;2023-04-21T04:23:54;99898.18;;;8.64;100.00
60611;BME280;46439;51.164;13.572;2023-04-21T04:26:23;99901.64;;;8.62;100.00
60611;BME280;46439;51.164;13.572;2023-04-21T04:28:52;99899.39;;;8.58;100.00
60611;BME280;46439;51.164;13.572;2023-04-21T04:31:23;99902.71;;;8.56;100.00
60611;BME280;46439;51.164;13.572;2023-04-21T04:33:52;99899.45;;;8.57;100.00
60611;BME280;46439;51.164;13.572;2023-04-21T04:36:20;99894.84;;;8.54;100.00
60611;BME280;46439;51.164;13.572;2023-04-21T04:38:49;99897.96;;;8.46;100.00
60611;BME280;46439;51.164;13.572;2023-04-21T04:41:18;99902.11;;;8.41;100.00
60611;BME280;46439;51.164;13.572;2023-04-21T04:43:48;99905.25;;;8.38;100.00
60611;BME280;46439;51.164;13.572;2023-04-21T04:46:16;99910.94;;;8.40;100.00
60611;BME280;46439;51.164;13.572;2023-04-21T04:48:47;99915.25;;;8.44;100.00
60611;BME280;46439;51.164;13.572;2023-04-21T04:51:16;99915.71;;;8.41;100.00
60611;BME280;46439;51.164;13.572;2023-04-21T04:53:44;99917.96;;;8.35;100.00
60611;BME280;46439;51.164;13.572;2023-04-21T04:56:13;99916.76;;;8.36;100.00
60611;BME280;46439;51.164;13.572;2023-04-21T04:58:41;99918.81;;;8.41;100.00
60611;BME280;46439;51.164;13.572;2023-04-21T05:01:13;99919.14;;;8.44;100.00
60611;BME280;46439;51.164;13.572;2023-04-21T05:03:43;99912.11;;;8.46;100.00
60611;BME280;46439;51.164;13.572;2023-04-21T05:06:12;99921.01;;;8.49;100.00
60611;BME280;46439;51.164;13.572;2023-04-21T05:08:41;99916.09;;;8.53;100.00
60611;BME280;46439;51.164;13.572;2023-04-21T05:11:10;99923.48;;;8.54;100.00
60611;BME280;46439;51.164;13.572;2023-04-21T05:13:38;99923.13;;;8.57;100.00
60611;BME280;46439;51.164;13.572;2023-04-21T05:16:08;99918.98;;;8.59;100.00
60611;BME280;46439;51.164;13.572;2023-04-21T05:18:37;99925.20;;;8.64;100.00
60611;BME280;46439;51.164;13.572;2023-04-21T05:21:06;99931.14;;;8.68;100.00
60611;BME280;46439;51.164;13.572;2023-04-21T05:23:34;99929.01;;;8.71;100.00
60611;BME280;46439;51.164;13.572;2023-04-21T05:26:03;99931.55;;;8.76;100.00
60611;BME280;46439;51.164;13.572;2023-04-21T05:28:32;99933.68;;;8.78;100.00
60611;BME280;46439;51.164;13.572;2023-04-21T05:31:00;99929.70;;;8.83;100.00
60611;BME280;46439;51.164;13.572;2023-04-21T05:33:29;99933.17;;;8.89;100.00
60611;BME280;46439;51.164;13.572;2023-04-21T05:35:59;99938.15;;;8.94;100.00
60611;BME280;46439;51.164;13.572;2023-04-21T05:38:27;99936.40;;;9.00;100.00
60611;BME280;46439;51.164;13.572;2023-04-21T05:40:56;99942.83;;;9.08;100.00
60611;BME280;46439;51.164;13.572;2023-04-21T05:43:25;99939.79;;;9.10;100.00
60611;BME280;46439;51.164;13.572;2023-04-21T05:45:54;99935.59;;;9.13;100.00
60611;BME280;46439;51.164;13.572;2023-04-21T05:48:22;99938.15;;;9.16;100.00
60611;BME280;46439;51.164;13.572;2023-04-21T05:50:51;99934.98;;;9.18;100.00
60611;BME280;46439;51.164;13.572;2023-04-21T05:53:20;99931.88;;;9.25;100.00
60611;BME280;46439;51.164;13.572;2023-04-21T05:55:48;99929.36;;;9.33;100.00
60611;BME280;46439;51.164;13.572;2023-04-21T05:58:18;99924.86;;;9.40;100.00
60611;BME280;46439;51.164;13.572;2023-04-21T06:00:46;99926.77;;;9.47;100.00
60611;BME280;46439;51.164;13.572;2023-04-21T06:03:14;99922.17;;;9.54;100.00
60611;BME280;46439;51.164;13.572;2023-04-21T06:05:43;99924.21;;;9.61;100.00
60611;BME280;46439;51.164;13.572;2023-04-21T06:08:11;99921.36;;;9.69;100.00
60611;BME280;46439;51.164;13.572;2023-04-21T06:10:40;99919.45;;;9.75;100.00
60611;BME280;46439;51.164;13.572;2023-04-21T06:13:09;99915.15;;;9.80;100.00
60611;BME280;46439;51.164;13.572;2023-04-21T06:15:37;99915.42;;;9.85;100.00
60611;BME280;46439;51.164;13.572;2023-04-21T06:18:06;99914.30;;;9.89;100.00
60611;BME280;46439;51.164;13.572;2023-04-21T06:20:35;99914.95;;;9.92;100.00
60611;BME280;46439;51.164;13.572;2023-04-21T06:23:04;99912.02;;;9.95;100.00
60611;BME280;46439;51.164;13.572;2023-04-21T06:25:32;99913.77;;;10.08;100.00
60611;BME280;46439;51.164;13.572;2023-04-21T06:28:01;99910.08;;;10.23;100.00
60611;BME280;46439;51.164;13.572;2023-04-21T06:30:29;99907.82;;;10.31;100.00
60611;BME280;46439;51.164;13.572;2023-04-21T06:32:58;99900.80;;;10.39;100.00
60611;BME280;46439;51.164;13.572;2023-04-21T06:35:26;99897.89;;;10.46;100.00
60611;BME280;46439;51.164;13.572;2023-04-21T06:37:55;99895.38;;;10.56;100.00
60611;BME280;46439;51.164;13.572;2023-04-21T06:40:24;99898.31;;;10.67;100.00
60611;BME280;46439;51.164;13.572;2023-04-21T06:42:52;99894.48;;;10.76;100.00
60611;BME280;46439;51.164;13.572;2023-04-21T06:45:21;99869.40;;;10.86;100.00
60611;BME280;46439;51.164;13.572;2023-04-21T06:47:50;99862.98;;;10.96;100.00
60611;BME280;46439;51.164;13.572;2023-04-21T06:50:18;99861.63;;;11.04;100.00
60611;BME280;46439;51.164;13.572;2023-04-21T06:52:46;99857.48;;;11.12;100.00
60611;BME280;46439;51.164;13.572;2023-04-21T06:55:15;99863.16;;;11.22;100.00
60611;BME280;46439;51.164;13.572;2023-04-21T06:57:44;99865.17;;;11.27;100.00
60611;BME280;46439;51.164;13.572;2023-04-21T07:00:14;99871.13;;;11.35;100.00
60611;BME280;46439;51.164;13.572;2023-04-21T07:02:43;99863.98;;;11.46;100.00
60611;BME280;46439;51.164;13.572;2023-04-21T07:05:11;99867.63;;;11.58;100.00
60611;BME280;46439;51.164;13.572;2023-04-21T07:07:40;99855.92;;;11.66;100.00
60611;BME280;46439;51.164;13.572;2023-04-21T07:10:10;99864.30;;;11.73;100.00
60611;BME280;46439;51.164;13.572;2023-04-21T07:12:38;99858.67;;;11.75;100.00
60611;BME280;46439;51.164;13.572;2023-04-21T07:15:09;99853.27;;;11.78;100.00
60611;BME280;46439;51.164;13.572;2023-04-21T07:17:38;99849.66;;;11.84;100.00
60611;BME280;46439;51.164;13.572;2023-04-21T07:20:09;99852.29;;;11.90;100.00
60611;BME280;46439;51.164;13.572;2023-04-21T07:22:37;99850.57;;;11.94;100.00
60611;BME280;46439;51.164;13.572;2023-04-21T07:25:08;99851.91;;;12.06;100.00
60611;BME280;46439;51.164;13.572;2023-04-21T07:27:37;99851.83;;;12.25;100.00
60611;BME280;46439;51.164;13.572;2023-04-21T07:30:07;99850.14;;;12.41;100.00
60611;BME280;46439;51.164;13.572;2023-04-21T07:32:36;99854.05;;;12.55;100.00
60611;BME280;46439;51.164;13.572;2023-04-21T07:35:07;99855.50;;;12.66;100.00
60611;BME280;46439;51.164;13.572;2023-04-21T07:37:35;99849.14;;;12.78;100.00
60611;BME280;46439;51.164;13.572;2023-04-21T07:40:06;99842.09;;;12.87;100.00
60611;BME280;46439;51.164;13.572;2023-04-21T07:42:35;99846.44;;;13.00;100.00
60611;BME280;46439;51.164;13.572;2023-04-21T07:45:04;99839.91;;;13.10;100.00
60611;BME280;46439;51.164;13.572;2023-04-21T07:47:33;99839.45;;;13.21;100.00
60611;BME280;46439;51.164;13.572;2023-04-21T07:50:01;99837.84;;;13.35;100.00
60611;BME280;46439;51.164;13.572;2023-04-21T07:52:30;99829.15;;;13.45;100.00
60611;BME280;46439;51.164;13.572;2023-04-21T07:54:58;99828.95;;;13.55;100.00
60611;BME280;46439;51.164;13.572;2023-04-21T07:57:27;99824.29;;;13.65;100.00
60611;BME280;46439;51.164;13.572;2023-04-21T07:59:55;99828.88;;;13.74;100.00
60611;BME280;46439;51.164;13.572;2023-04-21T08:02:24;99823.15;;;13.86;100.00
60611;BME280;46439;51.164;13.572;2023-04-21T08:04:52;99814.85;;;14.00;100.00
60611;BME280;46439;51.164;13.572;2023-04-21T08:07:21;99812.55;;;14.13;100.00
60611;BME280;46439;51.164;13.572;2023-04-21T08:09:49;99807.52;;;14.28;100.00
60611;BME280;46439;51.164;13.572;2023-04-21T08:12:18;99794.16;;;14.41;100.00
60611;BME280;46439;51.164;13.572;2023-04-21T08:14:47;99798.73;;;14.54;100.00
60611;BME280;46439;51.164;13.572;2023-04-21T08:17:15;99797.13;;;14.69;100.00
60611;BME280;46439;51.164;13.572;2023-04-21T08:19:44;99788.70;;;14.89;100.00
60611;BME280;46439;51.164;13.572;2023-04-21T08:22:13;99781.68;;;15.10;100.00
60611;BME280;46439;51.164;13.572;2023-04-21T08:24:41;99774.92;;;15.34;100.00
60611;BME280;46439;51.164;13.572;2023-04-21T08:27:10;99768.10;;;15.56;100.00
60611;BME280;46439;51.164;13.572;2023-04-21T08:29:38;99767.60;;;15.77;100.00
60611;BME280;46439;51.164;13.572;2023-04-21T08:32:07;99757.21;;;15.96;100.00
60611;BME280;46439;51.164;13.572;2023-04-21T08:34:35;99754.76;;;16.13;100.00
60611;BME280;46439;51.164;13.572;2023-04-21T08:37:04;99745.26;;;16.34;100.00
60611;BME280;46439;51.164;13.572;2023-04-21T08:39:33;99738.50;;;16.54;100.00
60611;BME280;46439;51.164;13.572;2023-04-21T08:42:02;99732.55;;;16.72;100.00
60611;BME280;46439;51.164;13.572;2023-04-21T08:44:31;99726.95;;;16.89;100.00
60611;BME280;46439;51.164;13.572;2023-04-21T08:47:00;99712.00;;;17.06;100.00
60611;BME280;46439;51.164;13.572;2023-04-21T08:49:30;99704.07;;;17.21;100.00
60611;BME280;46439;51.164;13.572;2023-04-21T08:52:01;99687.45;;;17.36;100.00
60611;BME280;46439;51.164;13.572;2023-04-21T08:54:30;99684.00;;;17.51;100.00
60611;BME280;46439;51.164;13.572;2023-04-21T08:56:59;99668.91;;;17.65;100.00
60611;BME280;46439;51.164;13.572;2023-04-21T08:59:30;99660.39;;;17.79;100.00
60611;BME280;46439;51.164;13.572;2023-04-21T09:02:10;99663.31;;;17.90;100.00
60611;BME280;46439;51.164;13.572;2023-04-21T09:04:40;99639.64;;;18.02;100.00
60611;BME280;46439;51.164;13.572;2023-04-21T09:07:09;99634.02;;;18.18;100.00
60611;BME280;46439;51.164;13.572;2023-04-21T09:09:54;99629.47;;;18.29;100.00
60611;BME280;46439;51.164;13.572;2023-04-21T09:12:23;99603.41;;;18.39;100.00
60611;BME280;46439;51.164;13.572;2023-04-21T09:14:52;99594.02;;;18.49;100.00
60611;BME280;46439;51.164;13.572;2023-04-21T09:17:26;99580.48;;;18.58;100.00
60611;BME280;46439;51.164;13.572;2023-04-21T09:19:55;99561.02;;;18.68;100.00
60611;BME280;46439;51.164;13.572;2023-04-21T09:22:27;99663.26;;;18.78;100.00
60611;BME280;46439;51.164;13.572;2023-04-21T09:24:59;99667.73;;;18.83;100.00
60611;BME280;46439;51.164;13.572;2023-04-21T09:27:28;99658.80;;;18.90;100.00
60611;BME280;46439;51.164;13.572;2023-04-21T09:30:03;99654.66;;;19.01;100.00
60611;BME280;46439;51.164;13.572;2023-04-21T09:32:38;99648.15;;;19.13;100.00
60611;BME280;46439;51.164;13.572;2023-04-21T09:35:10;99655.73;;;19.21;100.00
60611;BME280;46439;51.164;13.572;2023-04-21T09:37:39;99644.61;;;19.29;100.00
60611;BME280;46439;51.164;13.572;2023-04-21T09:40:13;99636.65;;;19.31;100.00
60611;BME280;46439;51.164;13.572;2023-04-21T09:42:42;99631.42;;;19.35;100.00
60611;BME280;46439;51.164;13.572;2023-04-21T09:45:12;99609.06;;;19.43;100.00
60611;BME280;46439;51.164;13.572;2023-04-21T09:47:44;99571.29;;;19.49;100.00
60611;BME280;46439;51.164;13.572;2023-04-21T09:50:15;99545.27;;;19.54;100.00
60611;BME280;46439;51.164;13.572;2023-04-21T09:52:46;99533.77;;;19.58;100.00
60611;BME280;46439;51.164;13.572;2023-04-21T09:55:19;99514.38;;;19.61;100.00
60611;BME280;46439;51.164;13.572;2023-04-21T09:57:50;99499.16;;;19.65;100.00
60611;BME280;46439;51.164;13.572;2023-04-21T10:00:21;99503.21;;;19.71;100.00
60611;BME280;46439;51.164;13.572;2023-04-21T10:02:56;99498.05;;;19.80;100.00
60611;BME280;46439;51.164;13.572;2023-04-21T10:05:26;99496.48;;;19.84;100.00
60611;BME280;46439;51.164;13.572;2023-04-21T10:07:56;99489.15;;;19.93;100.00
60611;BME280;46439;51.164;13.572;2023-04-21T10:10:26;99468.64;;;20.00;100.00
60611;BME280;46439;51.164;13.572;2023-04-21T10:12:56;99469.48;;;20.05;100.00
60611;BME280;46439;51.164;13.572;2023-04-21T10:15:32;99463.82;;;20.11;100.00
60611;BME280;46439;51.164;13.572;2023-04-21T10:18:16;99457.84;;;20.15;100.00
60611;BME280;46439;51.164;13.572;2023-04-21T10:20:56;99455.92;;;20.24;100.00
60611;BME280;46439;51.164;13.572;2023-04-21T10:23:35;99448.30;;;20.28;100.00
60611;BME280;46439;51.164;13.572;2023-04-21T10:26:05;99449.54;;;20.30;100.00
60611;BME280;46439;51.164;13.572;2023-04-21T10:28:51;99453.25;;;20.29;100.00
60611;BME280;46439;51.164;13.572;2023-04-21T10:31:24;99450.05;;;20.28;100.00
60611;BME280;46439;51.164;13.572;2023-04-21T10:34:13;99451.17;;;20.35;100.00
60611;BME280;46439;51.164;13.572;2023-04-21T10:37:08;99449.23;;;20.37;100.00
60611;BME280;46439;51.164;13.572;2023-04-21T10:39:42;99449.58;;;20.43;100.00
60611;BME280;46439;51.164;13.572;2023-04-21T10:42:26;99450.02;;;20.48;100.00
60611;BME280;46439;51.164;13.572;2023-04-21T10:45:08;99441.02;;;20.53;100.00
60611;BME280;46439;51.164;13.572;2023-04-21T10:47:39;99434.55;;;20.61;100.00
60611;BME280;46439;51.164;13.572;2023-04-21T10:50:15;99438.77;;;20.70;100.00
60611;BME280;46439;51.164;13.572;2023-04-21T10:52:52;99432.78;;;20.85;100.00
60611;BME280;46439;51.164;13.572;2023-04-21T10:55:24;99430.92;;;21.03;100.00
60611;BME280;46439;51.164;13.572;2023-04-21T10:57:53;99417.52;;;21.16;100.00
60611;BME280;46439;51.164;13.572;2023-04-21T11:00:22;99414.31;;;21.25;100.00
60611;BME280;46439;51.164;13.572;2023-04-21T11:02:56;99413.83;;;21.31;100.00
60611;BME280;46439;51.164;13.572;2023-04-21T11:05:33;99410.02;;;21.32;100.00
60611;BME280;46439;51.164;13.572;2023-04-21T11:08:19;99412.75;;;21.35;100.00
60611;BME280;46439;51.164;13.572;2023-04-21T11:10:53;99402.13;;;21.46;100.00
60611;BME280;46439;51.164;13.572;2023-04-21T11:13:24;99396.38;;;21.54;100.00
60611;BME280;46439;51.164;13.572;2023-04-21T11:16:06;99394.55;;;21.60;100.00
60611;BME280;46439;51.164;13.572;2023-04-21T11:18:37;99394.94;;;21.61;100.00
60611;BME280;46439;51.164;13.572;2023-04-21T11:21:11;99398.16;;;21.68;100.00
60611;BME280;46439;51.164;13.572;2023-04-21T11:23:48;99393.02;;;21.73;100.00
60611;BME280;46439;51.164;13.572;2023-04-21T11:26:23;99394.95;;;21.64;100.00
60611;BME280;46439;51.164;13.572;2023-04-21T11:28:58;99399.57;;;21.55;100.00
60611;BME280;46439;51.164;13.572;2023-04-21T11:31:30;99400.96;;;21.58;100.00
60611;BME280;46439;51.164;13.572;2023-04-21T11:33:57;99400.16;;;21.72;100.00
60611;BME280;46439;51.164;13.572;2023-04-21T11:36:25;99393.64;;;21.83;100.00
60611;BME280;46439;51.164;13.572;2023-04-21T11:38:54;99395.36;;;21.79;100.00
60611;BME280;46439;51.164;13.572;2023-04-21T11:41:24;99391.59;;;21.72;100.00
60611;BME280;46439;51.164;13.572;2023-04-21T11:43:53;99389.49;;;21.69;100.00
60611;BME280;46439;51.164;13.572;2023-04-21T11:46:25;99377.86;;;21.62;100.00
60611;BME280;46439;51.164;13.572;2023-04-21T11:49:02;99364.91;;;21.56;100.00
60611;BME280;46439;51.164;13.572;2023-04-21T11:51:35;99323.31;;;21.51;100.00
60611;BME280;46439;51.164;13.572;2023-04-21T11:54:05;99318.27;;;21.51;100.00
60611;BME280;46439;51.164;13.572;2023-04-21T11:56:36;99349.35;;;21.52;100.00
60611;BME280;46439;51.164;13.572;2023-04-21T11:59:08;99352.84;;;21.48;100.00
60611;BME280;46439;51.164;13.572;2023-04-21T12:01:44;99351.02;;;21.47;100.00
60611;BME280;46439;51.164;13.572;2023-04-21T12:04:16;99350.19;;;21.47;100.00
60611;BME280;46439;51.164;13.572;2023-04-21T12:06:46;99347.16;;;21.54;100.00
60611;BME280;46439;51.164;13.572;2023-04-21T12:09:19;99342.33;;;21.64;100.00
60611;BME280;46439;51.164;13.572;2023-04-21T12:11:50;99336.27;;;21.84;100.00
60611;BME280;46439;51.164;13.572;2023-04-21T12:14:20;99336.92;;;21.97;100.00
60611;BME280;46439;51.164;13.572;2023-04-21T12:16:51;99341.68;;;22.06;100.00
60611;BME280;46439;51.164;13.572;2023-04-21T12:19:36;99338.23;;;22.08;100.00
60611;BME280;46439;51.164;13.572;2023-04-21T12:22:09;99322.86;;;22.15;100.00
60611;BME280;46439;51.164;13.572;2023-04-21T12:24:39;99323.94;;;22.23;100.00
60611;BME280;46439;51.164;13.572;2023-04-21T12:27:08;99322.42;;;22.29;100.00
60611;BME280;46439;51.164;13.572;2023-04-21T12:29:36;99312.92;;;22.31;100.00
60611;BME280;46439;51.164;13.572;2023-04-21T12:32:06;99314.23;;;22.28;100.00
60611;BME280;46439;51.164;13.572;2023-04-21T12:34:35;99315.02;;;22.23;100.00
60611;BME280;46439;51.164;13.572;2023-04-21T12:37:04;99311.55;;;22.19;100.00
60611;BME280;46439;51.164;13.572;2023-04-21T12:39:33;99316.85;;;22.23;100.00
60611;BME280;46439;51.164;13.572;2023-04-21T12:42:01;99346.47;;;22.29;100.00
60611;BME280;46439;51.164;13.572;2023-04-21T12:44:30;99349.39;;;22.35;100.00
60611;BME280;46439;51.164;13.572;2023-04-21T12:46:59;99358.94;;;22.46;100.00
60611;BME280;46439;51.164;13.572;2023-04-21T12:49:27;99355.53;;;22.57;100.00
60611;BME280;46439;51.164;13.572;2023-04-21T12:51:57;99351.54;;;22.69;100.00
60611;BME280;46439;51.164;13.572;2023-04-21T12:54:25;99344.17;;;22.85;100.00
60611;BME280;46439;51.164;13.572;2023-04-21T12:56:54;99346.39;;;23.02;100.00